Time;durP1;ratioP1;P1;durP2;ratioP2;P2;SDS_P1;SDS_P2;PMS_P1;PMS_P2;Temp;Humidity;BMP_temperature;BMP_pressure;BME280_temperature;BME280_humidity;BME280_pressure;Samples;Min_cycle;Max_cycle;Signal;HPM_P1;HPM_P2
2023/03/13 00:01:41;;;;;;;2.47;1.60;;;12.10;99.90;;;;;;4887871;29;20368;-82
2023/03/13 00:04:08;;;;;;;3.22;1.67;;;12.00;99.90;;;;;;4901662;29;20056;-83
2023/03/13 00:06:36;;;;;;;3.47;1.45;;;12.00;99.90;;;;;;4888808;29;20430;-82
2023/03/13 00:09:07;;;;;;;3.20;1.90;;;12.10;99.90;;;;;;4920930;29;20047;-82
2023/03/13 00:11:34;;;;;;;6.22;2.10;;;12.10;99.90;;;;;;4921617;29;20055;-82
2023/03/13 00:14:01;;;;;;;4.10;1.77;;;12.10;99.90;;;;;;4905387;29;20118;-82
2023/03/13 00:16:28;;;;;;;7.82;2.60;;;12.10;99.90;;;;;;4905775;29;20575;-82
2023/03/13 00:18:56;;;;;;;7.65;2.95;;;12.10;99.90;;;;;;4890075;29;20055;-82
2023/03/13 00:21:24;;;;;;;10.18;3.17;;;12.20;99.90;;;;;;4919922;29;20055;-82
2023/03/13 00:23:51;;;;;;;7.93;2.80;;;12.20;99.90;;;;;;4908777;29;20048;-82
2023/03/13 00:26:20;;;;;;;5.25;2.65;;;12.20;99.90;;;;;;4920040;29;20159;-82
2023/03/13 00:28:46;;;;;;;10.43;3.65;;;12.20;99.90;;;;;;4905679;29;20504;-82
2023/03/13 00:31:18;;;;;;;9.52;3.17;;;12.30;99.90;;;;;;4904932;29;20135;-82
2023/03/13 00:33:47;;;;;;;10.73;3.53;;;12.30;99.90;;;;;;4904664;29;20059;-82
2023/03/13 00:36:18;;;;;;;6.40;3.33;;;12.30;99.90;;;;;;4887522;29;20070;-80
2023/03/13 00:38:45;;;;;;;12.35;4.03;;;12.30;99.90;;;;;;4889976;29;20087;-81
2023/03/13 00:41:19;;;;;;;8.30;3.88;;;12.30;99.90;;;;;;4890102;29;20052;-81
2023/03/13 00:43:46;;;;;;;8.48;3.10;;;12.30;99.90;;;;;;4902213;29;20056;-81
2023/03/13 00:46:14;;;;;;;8.65;3.10;;;12.30;99.90;;;;;;4921623;29;20440;-81
2023/03/13 00:48:41;;;;;;;8.52;3.67;;;12.30;99.90;;;;;;4897837;29;20120;-80
2023/03/13 00:51:08;;;;;;;9.63;3.42;;;12.30;99.90;;;;;;4903786;29;20048;-81
2023/03/13 00:53:35;;;;;;;8.07;2.78;;;12.20;99.90;;;;;;4920295;29;20055;-81
2023/03/13 00:56:03;;;;;;;5.75;2.85;;;12.20;99.90;;;;;;4904281;29;20131;-81
2023/03/13 00:58:31;;;;;;;11.55;4.15;;;12.20;99.90;;;;;;4923091;29;20090;-81
2023/03/13 01:01:11;;;;;;;8.93;3.33;;;12.20;99.90;;;;;;4900163;29;20044;-81
2023/03/13 01:03:38;;;;;;;9.10;3.65;;;12.20;99.90;;;;;;4903084;29;20138;-80
2023/03/13 01:06:08;;;;;;;7.35;2.83;;;12.20;99.90;;;;;;4924055;29;20087;-81
2023/03/13 01:08:37;;;;;;;6.63;3.87;;;12.20;99.90;;;;;;4909659;29;20052;-81
2023/03/13 01:11:06;;;;;;;8.15;3.63;;;12.20;99.90;;;;;;4907829;29;20142;-81
2023/03/13 01:13:33;;;;;;;10.05;3.83;;;12.20;99.90;;;;;;4909569;29;20244;-83
2023/03/13 01:16:08;;;;;;;13.00;4.57;;;12.20;99.90;;;;;;4893059;29;20090;-81
2023/03/13 01:18:35;;;;;;;13.25;4.30;;;12.20;99.90;;;;;;4909677;29;20059;-81
2023/03/13 01:21:03;;;;;;;9.93;4.13;;;12.20;99.90;;;;;;4922536;29;20146;-81
2023/03/13 01:23:29;;;;;;;13.27;3.78;;;12.20;99.90;;;;;;4907872;29;20138;-81
2023/03/13 01:25:56;;;;;;;8.88;3.72;;;12.20;99.90;;;;;;4909373;29;20083;-80
2023/03/13 01:28:23;;;;;;;8.00;3.47;;;12.20;99.90;;;;;;4909347;29;20058;-81
2023/03/13 01:30:50;;;;;;;6.10;2.90;;;12.10;99.90;;;;;;4907718;29;20048;-80
2023/03/13 01:33:17;;;;;;;8.55;2.95;;;12.10;99.90;;;;;;4893359;29;20155;-81
2023/03/13 01:35:44;;;;;;;6.60;2.60;;;12.10;99.90;;;;;;4923862;29;20071;-81
2023/03/13 01:38:11;;;;;;;5.68;2.50;;;12.00;99.90;;;;;;4908077;29;20143;-80
2023/03/13 01:40:39;;;;;;;7.05;2.80;;;12.00;99.90;;;;;;4922963;29;20209;-81
2023/03/13 01:43:17;;;;;;;4.45;2.08;;;12.00;99.90;;;;;;4909496;29;20063;-81
2023/03/13 01:45:56;;;;;;;7.07;2.42;;;12.00;99.90;;;;;;4925050;29;20086;-81
2023/03/13 01:48:42;;;;;;;4.38;1.85;;;12.00;99.90;;;;;;4924613;29;20408;-81
2023/03/13 01:51:15;;;;;;;5.20;2.38;;;12.00;99.90;;;;;;4923069;29;20083;-81
2023/03/13 01:53:43;;;;;;;6.30;2.38;;;12.00;99.90;;;;;;4911604;29;20075;-81
2023/03/13 01:56:16;;;;;;;6.07;1.92;;;12.00;99.90;;;;;;4910016;29;20079;-81
2023/03/13 01:58:43;;;;;;;8.35;2.85;;;12.00;99.90;;;;;;4924400;29;20055;-81
2023/03/13 02:01:09;;;;;;;5.13;1.95;;;12.00;99.90;;;;;;4907453;29;20506;-81
2023/03/13 02:03:37;;;;;;;4.63;2.00;;;12.00;99.90;;;;;;4908380;29;20138;-81
2023/03/13 02:06:04;;;;;;;4.53;1.90;;;12.00;99.90;;;;;;4923895;29;20473;-81
2023/03/13 02:08:44;;;;;;;3.67;1.70;;;12.00;99.90;;;;;;4889975;29;20055;-81
2023/03/13 02:11:28;;;;;;;4.10;1.67;;;12.00;99.90;;;;;;4927931;29;20055;-83
2023/03/13 02:13:55;;;;;;;5.32;1.90;;;12.00;99.90;;;;;;4912088;29;20551;-81
2023/03/13 02:16:22;;;;;;;5.22;1.90;;;12.00;99.90;;;;;;4907651;29;20134;-81
2023/03/13 02:18:49;;;;;;;3.72;1.50;;;12.00;99.90;;;;;;4908550;29;20059;-81
2023/03/13 02:21:21;;;;;;;2.85;1.70;;;12.00;99.90;;;;;;4907010;29;20052;-81
2023/03/13 02:23:59;;;;;;;7.80;2.03;;;12.00;99.90;;;;;;4907685;29;20059;-81
2023/03/13 02:26:26;;;;;;;4.47;1.92;;;12.00;99.90;;;;;;4893089;29;20113;-81
2023/03/13 02:28:53;;;;;;;6.78;1.70;;;12.00;99.90;;;;;;4908797;29;20061;-81
2023/03/13 02:31:20;;;;;;;3.53;1.60;;;12.00;99.90;;;;;;4230919;29;10000619;-80
2023/03/13 02:33:46;;;;;;;4.40;1.45;;;12.00;99.90;;;;;;4910379;29;20098;-81
2023/03/13 02:36:13;;;;;;;2.85;1.25;;;12.00;99.90;;;;;;4927401;29;20055;-80
2023/03/13 02:38:54;;;;;;;3.05;1.40;;;12.00;99.90;;;;;;4911167;29;20159;-81
2023/03/13 02:41:21;;;;;;;2.92;1.20;;;11.90;99.90;;;;;;4922420;29;20471;-80
2023/03/13 02:43:48;;;;;;;3.55;1.50;;;11.90;99.90;;;;;;4915872;29;20055;-81
2023/03/13 02:46:16;;;;;;;5.03;2.30;;;11.90;99.90;;;;;;4885340;29;20130;-80
2023/03/13 02:48:48;;;;;;;4.20;1.67;;;11.90;99.90;;;;;;4909229;29;20099;-80
2023/03/13 02:51:18;;;;;;;3.95;1.67;;;11.80;99.90;;;;;;4917153;29;20051;-80
2023/03/13 02:53:46;;;;;;;4.25;1.42;;;11.80;99.90;;;;;;4941270;29;20058;-81
2023/03/13 02:56:13;;;;;;;4.88;2.03;;;11.80;99.90;;;;;;4930789;29;20051;-81
2023/03/13 02:58:41;;;;;;;5.82;1.85;;;11.80;99.90;;;;;;4931066;29;20055;-81
2023/03/13 03:01:15;;;;;;;6.75;2.10;;;11.80;99.90;;;;;;4919800;29;20487;-82
2023/03/13 03:03:42;;;;;;;6.45;2.60;;;11.80;99.90;;;;;;4911381;29;20166;-81
2023/03/13 03:06:09;;;;;;;4.85;2.17;;;11.80;99.90;;;;;;4910681;29;20047;-80
2023/03/13 03:08:40;;;;;;;5.38;2.25;;;11.80;99.90;;;;;;4895521;29;20056;-81
2023/03/13 03:11:07;;;;;;;7.13;2.08;;;11.80;99.90;;;;;;4927144;29;20776;-81
2023/03/13 03:13:33;;;;;;;3.05;1.70;;;11.80;99.90;;;;;;4928721;29;20056;-81
2023/03/13 03:16:08;;;;;;;4.45;2.47;;;11.80;99.90;;;;;;4927942;29;20159;-81
2023/03/13 03:18:35;;;;;;;3.25;1.90;;;11.80;99.90;;;;;;4911196;29;20259;-81
2023/03/13 03:21:05;;;;;;;2.85;1.38;;;11.80;99.90;;;;;;4909443;29;20054;-81
2023/03/13 03:23:35;;;;;;;2.25;1.23;;;11.80;99.90;;;;;;4920840;29;20485;-80
2023/03/13 03:26:02;;;;;;;5.30;1.45;;;11.80;99.90;;;;;;4930593;29;20054;-80
2023/03/13 03:28:29;;;;;;;3.30;1.40;;;11.70;99.90;;;;;;4930445;29;20157;-80
2023/03/13 03:30:56;;;;;;;1.70;0.90;;;11.70;99.90;;;;;;4938961;29;20468;-80
2023/03/13 03:33:23;;;;;;;1.92;1.10;;;11.70;99.90;;;;;;4927602;29;20570;-79
2023/03/13 03:35:50;;;;;;;3.88;1.33;;;11.70;99.90;;;;;;4926113;29;20432;-79
2023/03/13 03:38:16;;;;;;;2.60;0.85;;;11.70;99.90;;;;;;4924998;29;20062;-80
2023/03/13 03:40:43;;;;;;;1.27;0.80;;;11.60;99.90;;;;;;4945526;29;20047;-79
2023/03/13 03:43:10;;;;;;;2.67;0.88;;;11.70;99.90;;;;;;4938827;29;20420;-80
2023/03/13 03:45:37;;;;;;;3.53;1.42;;;11.70;99.90;;;;;;4927995;29;20138;-79
2023/03/13 03:48:04;;;;;;;1.88;0.70;;;11.60;99.90;;;;;;4910736;29;20506;-80
2023/03/13 03:50:30;;;;;;;1.95;1.25;;;11.60;99.90;;;;;;4925616;29;20130;-80
2023/03/13 03:52:57;;;;;;;2.28;1.17;;;11.60;99.90;;;;;;4927887;29;20082;-80
2023/03/13 03:55:24;;;;;;;1.60;0.90;;;11.70;99.90;;;;;;4914072;29;20134;-80
2023/03/13 03:57:51;;;;;;;3.13;1.20;;;11.60;99.90;;;;;;4947185;29;20130;-81
2023/03/13 04:00:18;;;;;;;1.30;0.70;;;11.70;99.90;;;;;;4913438;29;20055;-80
2023/03/13 04:02:45;;;;;;;0.98;0.70;;;11.60;99.90;;;;;;4910892;29;20052;-81
2023/03/13 04:05:11;;;;;;;1.80;0.93;;;11.70;99.90;;;;;;4910094;29;20052;-80
2023/03/13 04:07:38;;;;;;;1.13;0.65;;;11.70;99.90;;;;;;4925969;29;20047;-81
2023/03/13 04:10:05;;;;;;;2.38;0.82;;;11.70;99.90;;;;;;4909402;29;20139;-80
2023/03/13 04:12:33;;;;;;;0.82;0.63;;;11.70;99.90;;;;;;4894786;29;20500;-81
2023/03/13 04:14:59;;;;;;;1.52;0.70;;;11.70;99.90;;;;;;4927607;29;20066;-81
2023/03/13 04:17:26;;;;;;;3.78;0.90;;;11.70;99.90;;;;;;4926970;29;20143;-81
2023/03/13 04:19:53;;;;;;;2.22;1.08;;;11.70;99.90;;;;;;4919369;29;20055;-81
2023/03/13 04:22:19;;;;;;;3.00;1.00;;;11.70;99.90;;;;;;4910098;29;20153;-81
2023/03/13 04:24:46;;;;;;;2.65;0.77;;;11.70;99.90;;;;;;4925504;29;20446;-82
2023/03/13 04:27:13;;;;;;;3.10;0.95;;;11.70;99.90;;;;;;4910899;29;20083;-82
2023/03/13 04:29:40;;;;;;;3.45;1.30;;;11.80;99.90;;;;;;4934166;29;20215;-81
2023/03/13 04:32:07;;;;;;;2.75;1.30;;;11.80;99.90;;;;;;4903077;29;20059;-81
2023/03/13 04:34:33;;;;;;;2.90;1.40;;;11.80;99.90;;;;;;4922217;29;20122;-81
2023/03/13 04:37:00;;;;;;;3.47;1.95;;;11.80;99.90;;;;;;4914896;29;20091;-81
2023/03/13 04:39:27;;;;;;;2.85;1.00;;;11.80;99.90;;;;;;4927459;29;20416;-82
2023/03/13 04:41:54;;;;;;;2.17;1.17;;;11.80;99.90;;;;;;4930929;29;20048;-81
2023/03/13 04:44:21;;;;;;;4.10;1.35;;;11.80;99.90;;;;;;4914629;29;20055;-81
2023/03/13 04:46:48;;;;;;;2.05;0.85;;;11.70;99.90;;;;;;4913947;29;20059;-80
2023/03/13 04:49:15;;;;;;;1.73;0.93;;;11.70;99.90;;;;;;4913598;29;20574;-81
2023/03/13 04:51:42;;;;;;;4.00;1.20;;;11.70;99.90;;;;;;4895089;29;20131;-81
2023/03/13 04:54:09;;;;;;;2.35;1.23;;;11.70;99.90;;;;;;4927302;29;20051;-81
2023/03/13 04:56:36;;;;;;;3.60;1.50;;;11.70;99.90;;;;;;4930662;29;20051;-81
2023/03/13 04:59:13;;;;;;;3.45;1.90;;;11.70;99.90;;;;;;4915092;29;20415;-81
2023/03/13 05:01:40;;;;;;;3.17;1.20;;;11.70;99.90;;;;;;4912262;29;20058;-81
2023/03/13 05:04:07;;;;;;;4.20;1.50;;;11.70;99.90;;;;;;4912300;29;20206;-81
2023/03/13 05:06:34;;;;;;;4.80;1.67;;;11.70;99.90;;;;;;4911730;29;20162;-81
2023/03/13 05:09:01;;;;;;;2.17;1.08;;;11.70;99.90;;;;;;4913483;29;20065;-82
2023/03/13 05:11:28;;;;;;;2.78;1.13;;;11.70;99.90;;;;;;4912795;29;20105;-80
2023/03/13 05:13:54;;;;;;;4.95;2.13;;;11.70;99.90;;;;;;4913752;29;20057;-82
2023/03/13 05:16:21;;;;;;;4.15;1.60;;;11.60;99.90;;;;;;4913936;29;20119;-82
2023/03/13 05:18:48;;;;;;;4.70;1.75;;;11.60;99.90;;;;;;4913951;29;20044;-82
2023/03/13 05:21:15;;;;;;;5.30;2.22;;;11.60;99.90;;;;;;4927149;29;20091;-82
2023/03/13 05:23:42;;;;;;;3.92;1.80;;;11.60;99.90;;;;;;4913131;29;20410;-82
2023/03/13 05:26:08;;;;;;;3.35;1.65;;;11.60;99.90;;;;;;4930629;29;20135;-82
2023/03/13 05:28:35;;;;;;;5.78;2.30;;;11.50;99.90;;;;;;4897368;29;20142;-82
2023/03/13 05:31:03;;;;;;;5.70;1.95;;;11.50;99.90;;;;;;4896751;29;20043;-82
2023/03/13 05:33:30;;;;;;;5.57;2.08;;;11.60;99.90;;;;;;4903655;29;20436;-82
2023/03/13 05:35:56;;;;;;;5.68;2.35;;;11.60;99.90;;;;;;4897028;29;20056;-82
2023/03/13 05:38:23;;;;;;;6.15;2.67;;;11.60;99.90;;;;;;4912411;29;20488;-82
2023/03/13 05:40:50;;;;;;;4.88;2.08;;;11.60;99.90;;;;;;4913980;29;20504;-82
2023/03/13 05:43:17;;;;;;;4.60;2.05;;;11.70;99.90;;;;;;4927325;29;20515;-82
2023/03/13 05:45:43;;;;;;;5.10;2.72;;;11.70;99.90;;;;;;4913369;29;20052;-81
2023/03/13 05:48:10;;;;;;;7.20;2.60;;;11.70;99.90;;;;;;4897863;29;20055;-82
2023/03/13 05:50:37;;;;;;;8.85;2.65;;;11.70;99.90;;;;;;4912300;29;20586;-83
2023/03/13 05:53:04;;;;;;;8.88;2.40;;;11.70;99.90;;;;;;4924583;29;20050;-82
2023/03/13 05:55:31;;;;;;;7.05;2.80;;;11.70;99.90;;;;;;4927389;29;20142;-81
2023/03/13 05:57:58;;;;;;;7.78;2.55;;;11.70;99.90;;;;;;4930463;29;20052;-82
2023/03/13 06:00:25;;;;;;;8.55;2.90;;;11.70;99.90;;;;;;4925840;29;20055;-82
2023/03/13 06:02:51;;;;;;;7.63;2.90;;;11.70;99.90;;;;;;4916769;29;20059;-80
2023/03/13 06:05:18;;;;;;;12.18;4.07;;;11.70;99.90;;;;;;4920998;29;20098;-81
2023/03/13 06:07:45;;;;;;;9.32;2.90;;;11.60;99.90;;;;;;4907945;29;20056;-81
2023/03/13 06:10:12;;;;;;;9.20;3.30;;;11.60;99.90;;;;;;4906145;29;20464;-81
2023/03/13 06:12:38;;;;;;;7.35;2.90;;;11.60;99.90;;;;;;4906806;29;20112;-82
2023/03/13 06:15:06;;;;;;;5.63;2.33;;;11.60;99.90;;;;;;4908037;29;20052;-80
2023/03/13 06:17:32;;;;;;;7.10;2.42;;;11.60;99.90;;;;;;4925635;29;20055;-82
2023/03/13 06:19:59;;;;;;;6.82;2.47;;;11.60;99.90;;;;;;4906355;29;20147;-81
2023/03/13 06:22:26;;;;;;;7.32;2.42;;;11.70;99.90;;;;;;4908640;29;20063;-80
2023/03/13 06:24:53;;;;;;;8.43;3.20;;;11.70;99.90;;;;;;4920413;29;20054;-80
2023/03/13 06:27:20;;;;;;;8.63;2.72;;;11.70;99.90;;;;;;4919167;29;20058;-81
2023/03/13 06:29:47;;;;;;;5.38;2.20;;;11.80;99.90;;;;;;4890327;29;20052;-82
2023/03/13 06:32:14;;;;;;;8.35;2.90;;;11.70;99.90;;;;;;4905064;29;20668;-80
2023/03/13 06:34:41;;;;;;;8.55;2.78;;;11.70;99.90;;;;;;4921298;29;20059;-80
2023/03/13 06:37:08;;;;;;;6.22;2.67;;;11.80;99.90;;;;;;4931934;28;20061;-81
2023/03/13 06:39:35;;;;;;;7.70;2.83;;;11.80;99.90;;;;;;4900633;29;20083;-82
2023/03/13 06:42:02;;;;;;;12.27;4.07;;;11.80;99.90;;;;;;4904258;29;20134;-81
2023/03/13 06:44:28;;;;;;;9.48;3.25;;;11.80;99.90;;;;;;4920457;29;20087;-81
2023/03/13 06:46:55;;;;;;;15.70;4.05;;;11.90;99.90;;;;;;4921047;29;20044;-81
2023/03/13 06:49:22;;;;;;;8.27;3.42;;;11.90;99.90;;;;;;4887737;29;20047;-81
2023/03/13 06:51:49;;;;;;;9.95;3.58;;;11.90;99.90;;;;;;4901525;29;20468;-81
2023/03/13 06:54:15;;;;;;;10.93;4.18;;;11.90;99.90;;;;;;4902297;29;20086;-82
2023/03/13 06:56:42;;;;;;;12.10;3.78;;;11.90;99.90;;;;;;4903853;29;20132;-81
2023/03/13 06:59:09;;;;;;;14.73;5.68;;;11.90;99.90;;;;;;4922221;29;20060;-80
2023/03/13 07:01:36;;;;;;;14.68;4.85;;;11.90;99.90;;;;;;4919652;29;20056;-81
2023/03/13 07:04:02;;;;;;;15.65;5.55;;;12.00;99.90;;;;;;4904123;29;20056;-81
2023/03/13 07:06:29;;;;;;;14.57;5.28;;;12.10;99.90;;;;;;4902033;29;20095;-82
2023/03/13 07:08:56;;;;;;;14.40;4.80;;;12.10;99.90;;;;;;4903759;29;20087;-82
2023/03/13 07:11:24;;;;;;;13.88;5.57;;;12.10;99.90;;;;;;4911220;29;20067;-81
2023/03/13 07:13:54;;;;;;;12.88;4.60;;;12.10;99.90;;;;;;4898963;29;20060;-81
2023/03/13 07:16:40;;;;;;;17.10;5.00;;;12.00;99.90;;;;;;4902455;29;20087;-82
2023/03/13 07:19:07;;;;;;;15.98;5.15;;;12.10;99.90;;;;;;4900221;29;20402;-81
2023/03/13 07:21:34;;;;;;;12.23;4.35;;;12.10;99.90;;;;;;4911691;29;20558;-82
2023/03/13 07:24:01;;;;;;;17.88;4.90;;;12.10;99.90;;;;;;4901344;29;20355;-81
2023/03/13 07:26:28;;;;;;;15.05;4.70;;;12.10;99.90;;;;;;4902456;29;20065;-81
2023/03/13 07:28:55;;;;;;;17.73;6.22;;;12.20;99.90;;;;;;4921529;29;20122;-81
2023/03/13 07:31:23;;;;;;;13.30;4.72;;;12.20;99.90;;;;;;4901015;29;20043;-81
2023/03/13 07:33:55;;;;;;;15.43;6.22;;;12.20;99.90;;;;;;4920140;29;20048;-80
2023/03/13 07:36:23;;;;;;;17.85;5.72;;;12.30;99.90;;;;;;4915450;29;20086;-84
2023/03/13 07:38:50;;;;;;;13.25;5.10;;;12.30;99.90;;;;;;4903131;29;20122;-81
2023/03/13 07:41:18;;;;;;;13.35;5.32;;;12.40;99.90;;;;;;4890380;29;20586;-81
2023/03/13 07:43:45;;;;;;;12.38;5.00;;;12.40;99.90;;;;;;4898575;29;20059;-81
2023/03/13 07:46:17;;;;;;;13.57;5.30;;;12.30;99.90;;;;;;4906791;29;20104;-81
2023/03/13 07:48:45;;;;;;;19.40;5.90;;;12.40;99.90;;;;;;4905884;29;20154;-79
2023/03/13 07:51:24;;;;;;;19.05;6.07;;;12.40;99.90;;;;;;4905809;29;20126;-81
2023/03/13 07:54:08;;;;;;;13.50;4.82;;;12.40;99.90;;;;;;4907920;29;20134;-79
2023/03/13 07:56:35;;;;;;;14.15;5.47;;;12.50;99.90;;;;;;4921013;29;20074;-79
2023/03/13 07:59:01;;;;;;;12.18;5.15;;;12.50;99.90;;;;;;4921205;29;20051;-79
2023/03/13 08:01:28;;;;;;;15.80;5.18;;;12.50;99.90;;;;;;4922289;29;20055;-79
2023/03/13 08:03:59;;;;;;;19.40;5.97;;;12.50;99.90;;;;;;4918856;29;20107;-80
2023/03/13 08:06:28;;;;;;;12.75;5.47;;;12.50;99.90;;;;;;4898442;29;20439;-80
2023/03/13 08:08:57;;;;;;;18.30;6.57;;;12.50;99.90;;;;;;4906020;29;20079;-80
2023/03/13 08:11:24;;;;;;;16.23;5.25;;;12.50;99.90;;;;;;4889049;29;20469;-80
2023/03/13 08:13:55;;;;;;;18.20;5.63;;;12.50;99.90;;;;;;4889020;29;20225;-80
2023/03/13 08:16:29;;;;;;;18.38;5.47;;;12.50;99.90;;;;;;4889929;29;20484;-80
2023/03/13 08:18:57;;;;;;;14.10;5.63;;;12.50;99.90;;;;;;4886934;29;20066;-80
2023/03/13 08:21:27;;;;;;;15.20;6.40;;;12.50;99.90;;;;;;4886347;29;20059;-80
2023/03/13 08:23:55;;;;;;;15.90;6.00;;;12.50;99.90;;;;;;4905402;29;20111;-80
2023/03/13 08:26:26;;;;;;;21.70;6.20;;;12.50;99.90;;;;;;4906860;29;20047;-80
2023/03/13 08:28:58;;;;;;;19.98;6.68;;;12.60;99.90;;;;;;4907110;29;20051;-80
2023/03/13 08:31:29;;;;;;;22.92;6.70;;;12.60;99.90;;;;;;4923244;29;20145;-80
2023/03/13 08:33:56;;;;;;;18.08;6.05;;;12.70;99.90;;;;;;4905845;29;20171;-80
2023/03/13 08:36:24;;;;;;;22.55;6.93;;;12.70;99.90;;;;;;4919239;29;20052;-80
2023/03/13 08:38:52;;;;;;;18.90;6.15;;;12.80;99.90;;;;;;4895607;29;20071;-80
2023/03/13 08:41:21;;;;;;;16.52;5.60;;;12.80;99.90;;;;;;4905663;29;20056;-81
2023/03/13 08:43:48;;;;;;;22.58;7.45;;;12.90;99.90;;;;;;4891239;29;20099;-80
2023/03/13 08:46:14;;;;;;;20.30;7.03;;;12.90;99.90;;;;;;4922903;29;20406;-79
2023/03/13 08:48:47;;;;;;;13.13;5.15;;;13.00;99.90;;;;;;4915556;29;20066;-80
2023/03/13 08:51:17;;;;;;;22.40;6.53;;;13.00;99.90;;;;;;4903680;29;20063;-80
2023/03/13 08:53:44;;;;;;;15.27;5.50;;;13.00;99.90;;;;;;4920231;29;20510;-80
2023/03/13 08:56:13;;;;;;;17.77;5.68;;;13.00;99.90;;;;;;4906214;29;20558;-80
2023/03/13 08:58:40;;;;;;;16.77;6.00;;;12.90;99.90;;;;;;4889094;29;20119;-80
2023/03/13 09:01:11;;;;;;;21.52;7.68;;;12.90;99.90;;;;;;4906500;29;20059;-80
2023/03/13 09:03:38;;;;;;;20.83;6.85;;;12.90;99.90;;;;;;4905846;29;20055;-80
2023/03/13 09:06:05;;;;;;;21.88;5.97;;;12.90;99.90;;;;;;4889845;29;20055;-79
2023/03/13 09:08:32;;;;;;;22.85;6.72;;;12.90;99.90;;;;;;4905640;29;20056;-80
2023/03/13 09:11:10;;;;;;;19.88;7.10;;;12.90;99.90;;;;;;4918660;29;20047;-80
2023/03/13 09:13:39;;;;;;;17.13;5.60;;;12.90;99.90;;;;;;4902867;29;20503;-80
2023/03/13 09:16:31;;;;;;;17.67;6.50;;;12.90;99.90;;;;;;4900985;29;20047;-80
2023/03/13 09:18:58;;;;;;;20.80;7.72;;;12.90;99.90;;;;;;4897957;29;20740;-80
2023/03/13 09:21:27;;;;;;;20.27;6.80;;;13.00;99.90;;;;;;4880084;29;20138;-80
2023/03/13 09:23:53;;;;;;;18.10;6.30;;;13.00;99.90;;;;;;4894594;29;20040;-79
2023/03/13 09:26:20;;;;;;;17.58;5.93;;;13.00;99.90;;;;;;4919962;29;20079;-80
2023/03/13 09:28:50;;;;;;;15.13;5.78;;;13.00;99.90;;;;;;4907503;29;20142;-80
2023/03/13 09:31:21;;;;;;;16.95;5.65;;;13.10;99.90;;;;;;4904064;29;20421;-80
2023/03/13 09:33:49;;;;;;;15.48;5.65;;;13.10;99.90;;;;;;4912011;29;20098;-79
2023/03/13 09:36:16;;;;;;;16.80;5.97;;;13.10;99.90;;;;;;4904681;29;20093;-80
2023/03/13 09:38:47;;;;;;;18.67;6.38;;;13.10;99.90;;;;;;4905831;29;20059;-79
2023/03/13 09:41:17;;;;;;;17.80;5.47;;;13.20;99.90;;;;;;4909291;29;20526;-80
2023/03/13 09:44:00;;;;;;;17.88;5.95;;;13.20;99.90;;;;;;4925106;29;20550;-80
2023/03/13 09:46:48;;;;;;;16.83;6.20;;;13.20;99.90;;;;;;4909067;29;20051;-80
2023/03/13 09:49:19;;;;;;;16.20;5.82;;;13.30;99.90;;;;;;4925012;29;20259;-80
2023/03/13 09:51:48;;;;;;;15.75;5.65;;;13.20;99.90;;;;;;4907207;29;20052;-80
2023/03/13 09:54:24;;;;;;;14.20;5.20;;;13.30;99.90;;;;;;4908144;29;20058;-80
2023/03/13 09:57:06;;;;;;;16.70;5.57;;;13.40;99.90;;;;;;4923732;29;20579;-79
2023/03/13 09:59:37;;;;;;;19.33;6.68;;;13.40;99.90;;;;;;4908780;29;20054;-80
2023/03/13 10:02:05;;;;;;;14.68;5.70;;;13.40;99.90;;;;;;4908072;29;20134;-80
2023/03/13 10:04:32;;;;;;;13.35;4.65;;;13.40;99.90;;;;;;4922967;29;20062;-80
2023/03/13 10:06:59;;;;;;;14.63;5.70;;;13.40;99.90;;;;;;4924262;29;20192;-80
2023/03/13 10:09:30;;;;;;;22.00;6.55;;;13.50;99.90;;;;;;4908736;29;20056;-80
2023/03/13 10:12:14;;;;;;;16.50;6.07;;;13.50;99.90;;;;;;4893650;29;20268;-80
2023/03/13 10:14:57;;;;;;;18.05;5.90;;;13.60;99.90;;;;;;4924039;29;20083;-80
2023/03/13 10:17:37;;;;;;;15.48;6.15;;;13.50;99.90;;;;;;4909443;29;20056;-80
2023/03/13 10:20:29;;;;;;;17.23;5.60;;;13.60;99.90;;;;;;4907241;29;20559;-80
2023/03/13 10:23:01;;;;;;;12.55;4.97;;;13.50;99.90;;;;;;4910608;29;20111;-80
2023/03/13 10:25:31;;;;;;;14.45;5.70;;;13.60;99.90;;;;;;4893116;29;20074;-80
2023/03/13 10:27:58;;;;;;;12.90;5.43;;;13.60;99.90;;;;;;4925704;29;20503;-80
2023/03/13 10:30:34;;;;;;;14.50;5.40;;;13.60;99.90;;;;;;4923998;29;20098;-80
2023/03/13 10:33:23;;;;;;;19.55;6.40;;;13.60;99.90;;;;;;4923978;29;20059;-80
2023/03/13 10:36:19;;;;;;;16.45;6.03;;;13.60;99.90;;;;;;4924267;29;20550;-80
2023/03/13 10:38:50;;;;;;;17.50;6.55;;;13.60;99.90;;;;;;4919683;29;20059;-80
2023/03/13 10:41:21;;;;;;;14.13;5.00;;;13.60;99.90;;;;;;4908157;29;20068;-80
2023/03/13 10:43:52;;;;;;;15.18;5.18;;;13.70;99.90;;;;;;4923881;29;20586;-80
2023/03/13 10:46:27;;;;;;;17.17;5.90;;;13.80;99.90;;;;;;4908354;29;20060;-80
2023/03/13 10:48:55;;;;;;;18.17;6.30;;;13.80;99.90;;;;;;4908177;29;20064;-80
2023/03/13 10:51:23;;;;;;;19.65;6.68;;;13.80;99.90;;;;;;4922822;29;20210;-80
2023/03/13 10:53:52;;;;;;;21.58;6.75;;;13.80;99.90;;;;;;4907334;29;20058;-80
2023/03/13 10:56:24;;;;;;;15.57;6.00;;;13.80;99.90;;;;;;4892326;29;20052;-80
2023/03/13 10:58:51;;;;;;;19.55;6.70;;;13.90;99.90;;;;;;4907938;29;20653;-80
2023/03/13 11:01:40;;;;;;;17.92;6.70;;;13.90;99.90;;;;;;4907489;29;20091;-80
2023/03/13 11:04:31;;;;;;;20.00;7.03;;;13.90;99.90;;;;;;4907845;29;20400;-80
2023/03/13 11:07:02;;;;;;;15.27;6.07;;;13.90;99.90;;;;;;4923818;29;20051;-80
2023/03/13 11:09:29;;;;;;;18.92;6.13;;;13.90;99.90;;;;;;4908095;29;20106;-80
2023/03/13 11:12:04;;;;;;;13.85;5.93;;;14.00;99.90;;;;;;4924882;29;20056;-80
2023/03/13 11:14:31;;;;;;;11.98;5.10;;;13.90;99.90;;;;;;4923363;29;20066;-80
2023/03/13 11:17:27;;;;;;;15.05;5.57;;;14.00;99.90;;;;;;4923517;29;20299;-80
2023/03/13 11:20:13;;;;;;;14.57;5.63;;;14.20;99.90;;;;;;4920536;29;20055;-80
2023/03/13 11:23:01;;;;;;;16.45;5.05;;;14.20;99.90;;;;;;4895934;29;20145;-80
2023/03/13 11:25:52;;;;;;;16.52;5.30;;;14.10;99.90;;;;;;4907344;29;20162;-80
2023/03/13 11:28:37;;;;;;;16.85;6.35;;;14.10;99.90;;;;;;4924240;29;20059;-80
2023/03/13 11:31:23;;;;;;;23.33;8.10;;;14.10;99.90;;;;;;4922963;29;20050;-80
2023/03/13 11:33:56;;;;;;;17.48;5.75;;;14.10;99.90;;;;;;4924017;29;20224;-80
2023/03/13 11:36:58;;;;;;;17.95;6.13;;;14.20;99.90;;;;;;4921682;29;20451;-80
2023/03/13 11:39:27;;;;;;;17.83;5.45;;;14.30;99.90;;;;;;4883355;29;20422;-82
2023/03/13 11:42:00;;;;;;;16.55;6.28;;;14.30;99.90;;;;;;4916872;29;20087;-79
2023/03/13 11:44:39;;;;;;;15.93;6.40;;;14.40;99.90;;;;;;4924089;29;20060;-79
2023/03/13 11:47:24;;;;;;;10.18;4.25;;;14.60;99.90;;;;;;4923936;29;20054;-79
2023/03/13 11:50:25;;;;;;;18.23;5.80;;;14.80;99.90;;;;;;4921624;29;20047;-80
2023/03/13 11:52:58;;;;;;;12.02;5.40;;;14.80;99.90;;;;;;4921590;29;20150;-79
2023/03/13 11:56:04;;;;;;;17.15;5.93;;;14.90;99.90;;;;;;4922341;29;20051;-79
2023/03/13 11:58:53;;;;;;;13.05;4.85;;;14.80;99.90;;;;;;4906635;29;20151;-79
2023/03/13 12:01:23;;;;;;;12.02;5.10;;;15.00;99.90;;;;;;4888018;29;20143;-79
2023/03/13 12:04:14;;;;;;;14.98;4.65;;;14.90;99.90;;;;;;4906587;29;20134;-79
2023/03/13 12:07:01;;;;;;;14.27;5.20;;;14.90;99.90;;;;;;4900172;29;20051;-79
2023/03/13 12:09:41;;;;;;;13.43;5.28;;;15.00;99.90;;;;;;4902733;29;20056;-78
2023/03/13 12:12:29;;;;;;;16.63;6.00;;;15.20;99.90;;;;;;4922489;29;20094;-79
2023/03/13 12:15:19;;;;;;;10.80;5.60;;;15.20;99.90;;;;;;4923812;29;20067;-79
2023/03/13 12:17:58;;;;;;;16.25;5.75;;;15.40;99.90;;;;;;4909225;29;20496;-79
2023/03/13 12:20:41;;;;;;;17.65;6.30;;;15.80;99.90;;;;;;4918670;29;20491;-79
2023/03/13 12:23:17;;;;;;;14.02;5.45;;;15.70;99.90;;;;;;4905180;29;20074;-79
2023/03/13 12:26:07;;;;;;;19.17;6.60;;;15.60;99.90;;;;;;4906176;29;20058;-79
2023/03/13 12:28:55;;;;;;;17.83;6.47;;;15.50;99.90;;;;;;4919057;29;20494;-79
2023/03/13 12:31:28;;;;;;;16.42;5.68;;;15.50;99.90;;;;;;4908725;29;20484;-79
2023/03/13 12:33:58;;;;;;;;;;;15.40;99.90;;;;;;4891251;29;20056;-79
2023/03/13 12:36:45;;;;;;;17.73;5.97;;;15.40;99.90;;;;;;4904861;29;19945;-79
2023/03/13 12:39:40;;;;;;;19.15;7.38;;;15.50;99.90;;;;;;4906385;29;20444;-79
2023/03/13 12:42:20;;;;;;;15.35;5.78;;;15.40;99.90;;;;;;4897015;29;20139;-79
2023/03/13 12:44:47;;;;;;;18.48;6.10;;;15.80;99.90;;;;;;4906456;29;20507;-79
2023/03/13 12:47:31;;;;;;;17.15;6.22;;;16.00;99.90;;;;;;4922278;29;20087;-79
2023/03/13 12:50:06;;;;;;;14.98;5.47;;;15.80;99.90;;;;;;4920564;29;20139;-79
2023/03/13 12:52:48;;;;;;;13.18;4.70;;;15.70;99.90;;;;;;4890893;29;20066;-79
2023/03/13 12:55:32;;;;;;;15.95;5.30;;;15.80;99.90;;;;;;4904301;29;20044;-79
2023/03/13 12:58:21;;;;;;;15.68;5.70;;;15.80;99.90;;;;;;4888833;29;20006;-77
2023/03/13 13:00:47;;;;;;;16.63;6.50;;;15.50;99.90;;;;;;4909960;29;20052;-78
2023/03/13 13:03:19;;;;;;;21.70;6.70;;;15.40;99.90;;;;;;4917385;29;20048;-79